createdAt,value
2018-02-19T00:01:19.500Z,99.90
2018-02-19T00:03:47.004Z,99.90
2018-02-19T00:06:14.528Z,99.90
2018-02-19T00:08:42.720Z,99.90
2018-02-19T00:11:10.168Z,99.90
2018-02-19T00:13:37.685Z,99.90
2018-02-19T00:16:05.248Z,99.90
2018-02-19T00:18:32.799Z,99.90
2018-02-19T00:21:00.247Z,99.90
2018-02-19T00:23:27.700Z,99.90
2018-02-19T00:25:55.152Z,99.90
2018-02-19T00:28:22.647Z,99.90
2018-02-19T00:30:50.096Z,99.90
2018-02-19T00:33:17.537Z,99.90
2018-02-19T00:35:45.048Z,99.90
2018-02-19T00:38:12.460Z,99.90
2018-02-19T00:40:39.952Z,99.90
2018-02-19T00:43:07.388Z,99.90
2018-02-19T00:45:34.868Z,99.90
2018-02-19T00:48:02.308Z,99.90
2018-02-19T00:50:29.751Z,99.90
2018-02-19T00:52:57.259Z,99.90
2018-02-19T00:55:24.723Z,99.90
2018-02-19T00:57:52.156Z,99.90
2018-02-19T01:00:19.606Z,99.90
2018-02-19T01:02:47.044Z,99.90
2018-02-19T01:05:15.265Z,99.90
2018-02-19T01:07:42.703Z,99.90
2018-02-19T01:10:10.157Z,99.90
2018-02-19T01:12:38.395Z,99.90
2018-02-19T01:15:05.831Z,99.90
2018-02-19T01:17:33.293Z,99.90
2018-02-19T01:20:00.824Z,99.90
2018-02-19T01:22:29.042Z,99.90
2018-02-19T01:24:56.507Z,99.90
2018-02-19T01:27:24.019Z,99.90
2018-02-19T01:29:52.313Z,99.90
2018-02-19T01:32:19.819Z,99.90
2018-02-19T01:34:47.272Z,99.90
2018-02-19T01:37:14.736Z,99.90
2018-02-19T01:39:42.220Z,99.90
2018-02-19T01:42:09.705Z,99.90
2018-02-19T01:44:37.908Z,99.90
2018-02-19T01:47:05.392Z,99.90
2018-02-19T01:49:32.948Z,99.90
2018-02-19T01:52:00.388Z,99.90
2018-02-19T01:54:27.828Z,99.90
2018-02-19T01:56:56.045Z,99.90
2018-02-19T01:59:23.564Z,99.90
2018-02-19T02:01:51.012Z,99.90
2018-02-19T02:04:18.543Z,99.90
2018-02-19T02:06:46.008Z,99.90
2018-02-19T02:09:14.128Z,99.90
2018-02-19T02:11:41.648Z,99.90
2018-02-19T02:14:09.083Z,99.90
2018-02-19T02:16:36.535Z,99.90
2018-02-19T02:19:04.028Z,99.90
2018-02-19T02:21:31.483Z,99.90
2018-02-19T02:23:58.919Z,99.90
2018-02-19T02:26:26.480Z,99.90
2018-02-19T02:28:53.922Z,99.90
2018-02-19T02:31:22.132Z,99.90
2018-02-19T02:33:49.622Z,99.90
2018-02-19T02:36:17.093Z,99.90
2018-02-19T02:38:44.654Z,99.90
2018-02-19T02:41:12.103Z,99.90
2018-02-19T02:43:39.564Z,99.90
2018-02-19T02:46:07.176Z,99.90
2018-02-19T02:48:35.393Z,99.90
2018-02-19T02:51:02.819Z,99.90
2018-02-19T02:53:31.048Z,99.90
2018-02-19T02:55:58.489Z,99.90
2018-02-19T02:58:25.940Z,99.90
2018-02-19T03:00:53.376Z,99.90
2018-02-19T03:03:21.607Z,99.90
2018-02-19T03:05:49.079Z,99.90
2018-02-19T03:08:16.556Z,99.90
2018-02-19T03:10:43.996Z,99.90
2018-02-19T03:13:11.496Z,99.90
2018-02-19T03:15:39.020Z,99.90
2018-02-19T03:18:06.498Z,99.90
2018-02-19T03:20:33.936Z,99.90
2018-02-19T03:23:01.392Z,99.90
2018-02-19T03:25:28.848Z,99.90
2018-02-19T03:27:56.336Z,99.90
2018-02-19T03:30:23.784Z,99.90
2018-02-19T03:32:51.236Z,99.90
2018-02-19T03:35:18.719Z,99.90
2018-02-19T03:37:46.171Z,99.90
2018-02-19T03:40:13.610Z,99.90
2018-02-19T03:42:41.132Z,99.90
2018-02-19T03:45:09.394Z,99.90
2018-02-19T03:47:36.832Z,99.90
2018-02-19T03:50:04.279Z,99.90
2018-02-19T03:52:31.744Z,99.90
2018-02-19T03:54:59.183Z,99.90
2018-02-19T03:57:26.636Z,99.90
2018-02-19T03:59:54.840Z,99.90
2018-02-19T04:02:22.352Z,99.90
2018-02-19T04:04:49.784Z,99.90
2018-02-19T04:07:17.240Z,99.90
2018-02-19T04:09:44.708Z,99.90
2018-02-19T04:12:12.168Z,99.90
2018-02-19T04:14:39.620Z,99.90
2018-02-19T04:17:07.119Z,99.90
2018-02-19T04:19:34.560Z,99.90
2018-02-19T04:22:02.000Z,99.90
2018-02-19T04:24:29.524Z,99.90
2018-02-19T04:26:57.731Z,99.90
2018-02-19T04:29:25.188Z,99.90
2018-02-19T04:31:52.678Z,99.90
2018-02-19T04:34:20.141Z,99.90
2018-02-19T04:36:47.601Z,99.90
2018-02-19T04:39:15.169Z,99.90
2018-02-19T04:41:42.735Z,99.90
2018-02-19T04:44:11.103Z,99.90
2018-02-19T04:46:39.424Z,99.90
2018-02-19T04:49:06.892Z,99.90
2018-02-19T04:51:35.144Z,99.90
2018-02-19T04:54:02.592Z,99.90
2018-02-19T04:56:30.052Z,99.90
2018-02-19T04:58:57.495Z,99.90
2018-02-19T05:01:24.995Z,99.90
2018-02-19T05:03:53.978Z,99.90
2018-02-19T05:06:21.407Z,99.90
2018-02-19T05:08:50.515Z,99.90
2018-02-19T05:11:17.936Z,99.90
2018-02-19T05:13:46.175Z,99.90
2018-02-19T05:16:13.760Z,99.90
2018-02-19T05:18:41.210Z,99.90
2018-02-19T05:21:08.656Z,99.90
2018-02-19T05:23:36.275Z,99.90
2018-02-19T05:26:04.578Z,99.90
2018-02-19T05:28:32.002Z,99.90
2018-02-19T05:31:00.204Z,99.90
2018-02-19T05:33:27.688Z,99.90
2018-02-19T05:35:55.192Z,99.90
2018-02-19T05:38:22.736Z,99.90
2018-02-19T05:40:50.188Z,99.90
2018-02-19T05:43:17.705Z,99.90
2018-02-19T05:45:45.900Z,99.90
2018-02-19T05:48:13.348Z,99.90
2018-02-19T05:50:41.568Z,99.90
2018-02-19T05:53:09.136Z,99.90
2018-02-19T05:55:36.572Z,99.90
2018-02-19T05:58:04.060Z,99.90
2018-02-19T06:00:31.493Z,99.90
2018-02-19T06:02:58.985Z,99.90
2018-02-19T06:05:26.431Z,99.90
2018-02-19T06:07:53.885Z,99.90
2018-02-19T06:10:21.332Z,99.90
2018-02-19T06:12:48.830Z,99.90
2018-02-19T06:15:16.304Z,99.90
2018-02-19T06:17:43.852Z,99.90
2018-02-19T06:20:11.398Z,99.90
2018-02-19T06:22:38.891Z,99.90
2018-02-19T06:25:06.440Z,99.90
2018-02-19T06:27:33.876Z,99.90
2018-02-19T06:30:01.323Z,99.90
2018-02-19T06:32:28.759Z,99.90
2018-02-19T06:34:56.203Z,99.90
2018-02-19T06:37:23.692Z,99.90
2018-02-19T06:39:51.930Z,99.90
2018-02-19T06:42:19.365Z,99.90
2018-02-19T06:44:46.849Z,99.90
2018-02-19T06:47:14.280Z,99.90
2018-02-19T06:49:41.771Z,99.90
2018-02-19T06:52:09.244Z,99.90
2018-02-19T06:54:36.691Z,99.90
2018-02-19T06:57:04.153Z,99.90
2018-02-19T06:59:31.623Z,99.90
2018-02-19T07:01:59.080Z,99.90
2018-02-19T07:04:26.535Z,99.90
2018-02-19T07:06:53.982Z,99.90
2018-02-19T07:09:21.428Z,99.90
2018-02-19T07:11:48.860Z,99.90
2018-02-19T07:14:17.073Z,99.90
2018-02-19T07:16:44.513Z,99.90
2018-02-19T07:19:12.977Z,99.90
2018-02-19T07:21:40.608Z,99.90
2018-02-19T07:24:08.056Z,99.90
2018-02-19T07:26:35.549Z,99.90
2018-02-19T07:29:02.984Z,99.90
2018-02-19T07:31:30.425Z,99.90
2018-02-19T07:33:57.864Z,99.90
2018-02-19T07:36:26.072Z,99.90
2018-02-19T07:38:53.507Z,99.90
2018-02-19T07:41:21.721Z,99.90
2018-02-19T07:43:49.147Z,99.90
2018-02-19T07:46:17.391Z,99.90
2018-02-19T07:48:44.918Z,99.90
2018-02-19T07:51:12.401Z,99.90
2018-02-19T07:53:39.836Z,99.90
2018-02-19T07:56:07.284Z,99.90
2018-02-19T07:58:34.720Z,99.90
2018-02-19T08:01:02.955Z,99.90
2018-02-19T08:03:30.395Z,99.90
2018-02-19T08:05:57.888Z,99.90
2018-02-19T08:08:25.347Z,99.90
2018-02-19T08:10:52.807Z,99.90
2018-02-19T08:13:20.248Z,99.90
2018-02-19T08:15:47.704Z,99.90
2018-02-19T08:18:15.145Z,99.90
2018-02-19T08:20:43.368Z,99.90
2018-02-19T08:23:10.817Z,99.90
2018-02-19T08:25:38.280Z,99.90
2018-02-19T08:28:05.752Z,99.90
2018-02-19T08:30:33.224Z,99.90
2018-02-19T08:33:00.664Z,99.90
2018-02-19T08:35:28.138Z,99.90
2018-02-19T08:37:55.600Z,99.90
2018-02-19T08:40:23.068Z,99.90
2018-02-19T08:42:50.506Z,99.90
2018-02-19T08:45:17.952Z,99.90
2018-02-19T08:47:45.392Z,99.90
2018-02-19T08:50:13.607Z,99.90
2018-02-19T08:52:41.059Z,99.90
2018-02-19T08:55:08.504Z,99.90
2018-02-19T08:57:35.939Z,99.90
2018-02-19T09:00:03.386Z,99.90
2018-02-19T09:02:30.820Z,99.90
2018-02-19T09:04:58.264Z,99.90
2018-02-19T09:07:25.748Z,99.90
2018-02-19T09:09:53.236Z,99.90
2018-02-19T09:12:20.676Z,99.90
2018-02-19T09:14:48.128Z,99.90
2018-02-19T09:17:15.604Z,99.90
2018-02-19T09:19:43.057Z,99.90
2018-02-19T09:22:10.500Z,99.90
2018-02-19T09:24:37.941Z,99.90
2018-02-19T09:27:05.383Z,99.90
2018-02-19T09:29:33.586Z,99.90
2018-02-19T09:32:01.075Z,99.90
2018-02-19T09:34:28.512Z,99.90
2018-02-19T09:36:56.016Z,99.90
2018-02-19T09:39:23.452Z,99.90
2018-02-19T09:41:50.893Z,99.90
2018-02-19T09:44:18.384Z,99.90
2018-02-19T09:46:45.844Z,99.90
2018-02-19T09:49:13.293Z,99.90
2018-02-19T09:51:40.736Z,99.90
2018-02-19T09:54:08.935Z,99.90
2018-02-19T09:56:36.482Z,99.90
2018-02-19T09:59:03.909Z,98.50
2018-02-19T10:01:32.225Z,97.80
2018-02-19T10:03:59.648Z,97.80
2018-02-19T10:06:27.187Z,96.40
2018-02-19T10:08:54.632Z,93.70
2018-02-19T10:11:22.082Z,90.20
2018-02-19T10:13:49.544Z,84.30
2018-02-19T10:16:17.096Z,79.00
2018-02-19T10:18:44.565Z,75.70
2018-02-19T10:21:12.049Z,74.60
2018-02-19T10:23:39.456Z,81.20
2018-02-19T10:26:07.664Z,81.70
2018-02-19T10:28:35.100Z,81.70
2018-02-19T10:31:03.324Z,78.10
2018-02-19T10:33:30.765Z,78.10
2018-02-19T10:35:58.259Z,79.30
2018-02-19T10:38:25.699Z,79.90
2018-02-19T10:40:53.155Z,78.80
2018-02-19T10:43:20.607Z,77.50
2018-02-19T10:45:48.101Z,77.00
2018-02-19T10:48:15.544Z,75.10
2018-02-19T10:50:42.992Z,73.10
2018-02-19T10:53:10.480Z,74.30
2018-02-19T10:55:37.933Z,75.50
2018-02-19T10:58:05.375Z,73.90
2018-02-19T11:00:38.528Z,74.70
2018-02-19T11:03:06.755Z,69.90
2018-02-19T11:05:34.230Z,69.00
2018-02-19T11:08:01.681Z,69.70
2018-02-19T11:10:29.176Z,72.00
2018-02-19T11:12:56.916Z,71.70
2018-02-19T11:15:24.376Z,71.00
2018-02-19T11:17:51.831Z,72.90
2018-02-19T11:20:19.327Z,75.50
2018-02-19T11:22:46.776Z,72.80
2018-02-19T11:25:14.228Z,68.60
2018-02-19T11:27:41.675Z,68.40
2018-02-19T11:30:09.187Z,64.30
2018-02-19T11:32:36.627Z,62.00
2018-02-19T11:35:04.067Z,59.60
2018-02-19T11:37:32.353Z,58.60
2018-02-19T11:39:59.804Z,59.20
2018-02-19T11:42:27.311Z,61.80
2018-02-19T11:44:56.248Z,64.50
2018-02-19T11:47:23.708Z,64.30
2018-02-19T11:49:51.160Z,64.70
2018-02-19T11:52:19.364Z,63.60
2018-02-19T11:54:46.840Z,63.60
2018-02-19T11:57:14.428Z,63.10
2018-02-19T11:59:41.860Z,60.90
2018-02-19T12:02:09.315Z,58.10
2018-02-19T12:04:36.767Z,58.00
2018-02-19T12:07:04.232Z,58.60
2018-02-19T12:09:31.684Z,59.10
2018-02-19T12:11:59.179Z,59.40
2018-02-19T12:14:26.639Z,59.80
2018-02-19T12:16:54.123Z,59.00
2018-02-19T12:19:21.544Z,60.80
2018-02-19T12:21:49.022Z,62.20
2018-02-19T12:24:16.651Z,60.70
2018-02-19T12:26:44.144Z,58.20
2018-02-19T12:29:11.601Z,57.30
2018-02-19T12:31:39.046Z,56.30
2018-02-19T12:34:06.520Z,54.30
2018-02-19T12:36:33.970Z,54.10
2018-02-19T12:39:01.480Z,54.20
2018-02-19T12:41:29.012Z,54.20
2018-02-19T12:43:56.556Z,53.60
2018-02-19T12:46:24.010Z,52.80
2018-02-19T12:48:51.456Z,52.00
2018-02-19T12:51:18.938Z,52.70
2018-02-19T12:53:46.380Z,53.00
2018-02-19T12:56:13.884Z,52.30
2018-02-19T12:58:41.349Z,52.70
2018-02-19T13:01:08.990Z,53.10
2018-02-19T13:03:36.475Z,53.10
2018-02-19T13:06:03.908Z,52.60
2018-02-19T13:08:31.396Z,52.10
2018-02-19T13:10:58.853Z,51.90
2018-02-19T13:13:26.328Z,52.70
2018-02-19T13:15:53.852Z,53.60
2018-02-19T13:18:21.355Z,54.00
2018-02-19T13:20:48.752Z,53.00
2018-02-19T13:23:16.975Z,52.70
2018-02-19T13:25:44.444Z,52.70
2018-02-19T13:28:11.972Z,52.90
2018-02-19T13:30:39.412Z,49.10
2018-02-19T13:33:07.627Z,48.00
2018-02-19T13:35:35.126Z,48.00
2018-02-19T13:38:02.691Z,47.20
2018-02-19T13:40:30.240Z,47.10
2018-02-19T13:42:57.755Z,46.80
2018-02-19T13:45:25.262Z,45.40
2018-02-19T13:47:52.715Z,45.90
2018-02-19T13:50:20.184Z,47.90
2018-02-19T13:52:47.639Z,48.60
2018-02-19T13:55:15.079Z,49.40
2018-02-19T13:57:42.580Z,51.40
2018-02-19T14:00:10.128Z,52.40
2018-02-19T14:02:37.612Z,53.00
2018-02-19T14:05:05.221Z,53.30
2018-02-19T14:07:32.659Z,55.90
2018-02-19T14:10:00.865Z,58.80
2018-02-19T14:12:28.332Z,58.70
2018-02-19T14:14:55.781Z,58.40
2018-02-19T14:17:23.216Z,59.60
2018-02-19T14:19:51.444Z,58.10
2018-02-19T14:22:18.920Z,58.00
2018-02-19T14:24:46.372Z,58.80
2018-02-19T14:27:13.848Z,59.90
2018-02-19T14:29:41.300Z,59.80
2018-02-19T14:32:08.752Z,59.70
2018-02-19T14:34:36.200Z,59.50
2018-02-19T14:37:03.700Z,59.70
2018-02-19T14:39:31.252Z,59.50
2018-02-19T14:41:58.702Z,60.20
2018-02-19T14:44:26.142Z,59.20
2018-02-19T14:46:53.644Z,60.10
2018-02-19T14:49:21.198Z,60.20
2018-02-19T14:51:48.667Z,61.60
2018-02-19T14:54:16.150Z,60.80
2018-02-19T14:56:43.584Z,61.50
2018-02-19T14:59:11.840Z,61.90
2018-02-19T15:01:40.267Z,62.90
2018-02-19T15:04:07.823Z,63.40
2018-02-19T15:06:35.263Z,63.20
2018-02-19T15:09:02.707Z,63.40
2018-02-19T15:11:30.144Z,64.00
2018-02-19T15:13:58.364Z,65.00
2018-02-19T15:16:25.795Z,64.90
2018-02-19T15:18:53.266Z,64.90
2018-02-19T15:21:21.476Z,65.60
2018-02-19T15:23:49.061Z,65.60
2018-02-19T15:26:16.521Z,65.60
2018-02-19T15:28:44.042Z,65.70
2018-02-19T15:31:11.546Z,65.80
2018-02-19T15:33:38.987Z,65.80
2018-02-19T15:36:06.420Z,66.10
2018-02-19T15:38:33.877Z,66.50
2018-02-19T15:41:01.316Z,66.20
2018-02-19T15:43:29.555Z,67.90
2018-02-19T15:45:57.005Z,67.90
2018-02-19T15:48:24.441Z,67.10
2018-02-19T15:50:51.884Z,67.60
2018-02-19T15:53:20.112Z,67.60
2018-02-19T15:55:47.676Z,67.50
2018-02-19T15:58:15.132Z,67.00
2018-02-19T16:00:42.596Z,67.00
2018-02-19T16:03:10.032Z,67.60
2018-02-19T16:05:37.480Z,68.40
2018-02-19T16:08:05.055Z,69.00
2018-02-19T16:10:32.563Z,68.80
2018-02-19T16:13:00.001Z,69.50
2018-02-19T16:15:27.471Z,69.80
2018-02-19T16:17:55.003Z,70.10
2018-02-19T16:20:22.515Z,70.80
2018-02-19T16:22:49.956Z,70.70
2018-02-19T16:25:17.420Z,71.60
2018-02-19T16:27:44.876Z,71.80
2018-02-19T16:30:12.391Z,73.70
2018-02-19T16:32:40.588Z,74.90
2018-02-19T16:35:08.084Z,74.80
2018-02-19T16:37:35.580Z,75.90
2018-02-19T16:40:03.828Z,78.90
2018-02-19T16:42:31.282Z,78.70
2018-02-19T16:44:58.735Z,79.60
2018-02-19T16:47:26.174Z,80.40
2018-02-19T16:49:53.668Z,80.50
2018-02-19T16:52:21.110Z,82.10
2018-02-19T16:54:48.612Z,83.50
2018-02-19T16:57:16.093Z,85.30
2018-02-19T16:59:43.542Z,86.30
2018-02-19T17:02:10.984Z,87.30
2018-02-19T17:04:38.463Z,89.90
2018-02-19T17:07:05.919Z,90.20
2018-02-19T17:09:33.452Z,91.60
2018-02-19T17:12:00.980Z,93.40
2018-02-19T17:14:29.214Z,94.30
2018-02-19T17:16:56.648Z,94.30
2018-02-19T17:19:24.180Z,95.10
2018-02-19T17:21:52.372Z,99.40
2018-02-19T17:24:19.893Z,99.40
2018-02-19T17:26:47.337Z,99.30
2018-02-19T17:29:15.477Z,99.90
2018-02-19T17:31:42.959Z,99.90
2018-02-19T17:34:10.352Z,99.90
2018-02-19T17:36:37.800Z,99.90
2018-02-19T17:39:05.244Z,99.90
2018-02-19T17:41:32.716Z,99.90
2018-02-19T17:44:00.265Z,99.90
2018-02-19T17:46:27.687Z,99.90
2018-02-19T17:48:55.927Z,99.90
2018-02-19T17:51:23.405Z,99.90
2018-02-19T17:53:50.868Z,99.90
2018-02-19T17:56:18.524Z,99.90
2018-02-19T17:58:46.069Z,99.90
2018-02-19T18:01:13.519Z,99.90
2018-02-19T18:03:40.969Z,99.90
2018-02-19T18:06:08.429Z,99.90
2018-02-19T18:08:35.864Z,99.90
2018-02-19T18:11:04.082Z,99.90
2018-02-19T18:13:31.556Z,99.90
2018-02-19T18:15:59.042Z,99.90
2018-02-19T18:18:26.485Z,99.90
2018-02-19T18:20:53.933Z,99.90
2018-02-19T18:23:21.503Z,99.90
2018-02-19T18:25:48.936Z,99.90
2018-02-19T18:28:16.412Z,99.90
2018-02-19T18:30:43.988Z,99.90
2018-02-19T18:33:11.564Z,99.90
2018-02-19T18:35:39.037Z,99.90
2018-02-19T18:38:06.477Z,99.90
2018-02-19T18:40:33.928Z,99.90
2018-02-19T18:43:01.404Z,99.90
2018-02-19T18:45:28.945Z,99.90
2018-02-19T18:47:56.448Z,99.90
2018-02-19T18:50:25.596Z,99.90
2018-02-19T18:52:53.022Z,99.90
2018-02-19T18:55:21.259Z,99.90
2018-02-19T18:57:48.749Z,99.90
2018-02-19T19:00:16.992Z,99.90
2018-02-19T19:02:44.441Z,99.90
2018-02-19T19:05:12.002Z,99.90
2018-02-19T19:07:51.462Z,99.90
2018-02-19T19:10:30.620Z,99.90
2018-02-19T19:12:58.151Z,99.90
2018-02-19T19:15:25.636Z,99.90
2018-02-19T19:17:53.111Z,99.90
2018-02-19T19:20:20.538Z,99.90
2018-02-19T19:22:48.016Z,99.90
2018-02-19T19:25:16.112Z,99.90
2018-02-19T19:27:44.352Z,99.90
2018-02-19T19:30:11.996Z,99.90
2018-02-19T19:32:39.488Z,99.90
2018-02-19T19:35:07.022Z,99.90
2018-02-19T19:37:34.544Z,99.90
2018-02-19T19:40:01.980Z,99.90
2018-02-19T19:42:29.540Z,99.90
2018-02-19T19:44:56.968Z,99.90
2018-02-19T19:47:24.533Z,99.90
2018-02-19T19:49:51.960Z,99.90
2018-02-19T19:52:19.513Z,99.90
2018-02-19T19:54:46.944Z,99.90
2018-02-19T19:57:14.427Z,99.90
2018-02-19T19:59:41.863Z,99.90
2018-02-19T20:02:09.331Z,99.90
2018-02-19T20:04:36.783Z,99.90
2018-02-19T20:07:04.267Z,99.90
2018-02-19T20:09:31.712Z,99.90
2018-02-19T20:11:59.172Z,99.90
2018-02-19T20:14:26.631Z,99.90
2018-02-19T20:16:54.127Z,99.90
2018-02-19T20:19:21.749Z,99.90
2018-02-19T20:21:49.181Z,99.90
2018-02-19T20:24:16.644Z,99.90
2018-02-19T20:26:44.092Z,99.90
2018-02-19T20:29:12.335Z,99.90
2018-02-19T20:31:39.787Z,99.90
2018-02-19T20:34:07.263Z,99.90
2018-02-19T20:36:34.813Z,99.90
2018-02-19T20:39:02.250Z,99.90
2018-02-19T20:41:29.698Z,99.90
2018-02-19T20:43:57.240Z,99.90
2018-02-19T20:46:24.696Z,99.90
2018-02-19T20:48:52.207Z,99.90
2018-02-19T20:51:19.638Z,99.90
2018-02-19T20:53:47.844Z,99.90
2018-02-19T20:56:15.295Z,99.90
2018-02-19T20:58:42.730Z,99.90
2018-02-19T21:01:10.931Z,99.90
2018-02-19T21:03:38.376Z,99.90
2018-02-19T21:06:05.900Z,99.90
2018-02-19T21:08:33.451Z,99.90
2018-02-19T21:11:00.916Z,99.90
2018-02-19T21:13:28.350Z,99.90
2018-02-19T21:15:55.829Z,99.90
2018-02-19T21:18:23.272Z,99.90
2018-02-19T21:20:50.741Z,99.90
2018-02-19T21:23:18.180Z,99.90
2018-02-19T21:25:45.622Z,99.90
2018-02-19T21:28:13.828Z,99.90
2018-02-19T21:30:41.340Z,99.90
2018-02-19T21:33:08.780Z,99.90
2018-02-19T21:35:36.236Z,99.90
2018-02-19T21:38:03.776Z,99.90
2018-02-19T21:40:31.339Z,99.90
2018-02-19T21:42:58.815Z,99.90
2018-02-19T21:45:26.260Z,99.90
2018-02-19T21:47:53.756Z,99.90
2018-02-19T21:50:21.196Z,99.90
2018-02-19T21:52:48.652Z,99.90
2018-02-19T21:55:16.180Z,99.90
2018-02-19T21:57:44.396Z,99.90
2018-02-19T22:00:11.952Z,99.90
2018-02-19T22:02:39.436Z,99.90
2018-02-19T22:05:06.868Z,99.90
2018-02-19T22:07:34.356Z,99.90
2018-02-19T22:10:01.837Z,99.90
2018-02-19T22:12:29.287Z,99.90
2018-02-19T22:14:58.344Z,99.90
2018-02-19T22:17:25.787Z,99.90
2018-02-19T22:19:54.000Z,99.90
2018-02-19T22:22:21.484Z,99.90
2018-02-19T22:24:48.918Z,99.90
2018-02-19T22:27:16.359Z,99.90
2018-02-19T22:29:44.617Z,99.90
2018-02-19T22:32:12.147Z,99.90
2018-02-19T22:34:39.613Z,99.90
2018-02-19T22:37:07.083Z,99.90
2018-02-19T22:39:34.532Z,99.90
2018-02-19T22:42:01.967Z,99.90
2018-02-19T22:44:29.451Z,99.90
2018-02-19T22:46:56.902Z,99.90
2018-02-19T22:49:24.392Z,99.90
2018-02-19T22:51:51.836Z,99.90
2018-02-19T22:54:19.299Z,99.90
2018-02-19T22:56:46.783Z,99.90
2018-02-19T22:59:14.740Z,99.90
2018-02-19T23:01:42.179Z,99.90
2018-02-19T23:04:09.662Z,99.90
2018-02-19T23:06:37.106Z,99.90
2018-02-19T23:09:04.568Z,99.90
2018-02-19T23:11:32.056Z,99.90
2018-02-19T23:14:00.400Z,99.90
2018-02-19T23:16:27.860Z,99.90
2018-02-19T23:18:55.424Z,99.90
2018-02-19T23:21:22.851Z,99.90
2018-02-19T23:23:51.068Z,99.90
2018-02-19T23:26:18.533Z,99.90
2018-02-19T23:28:45.998Z,99.90
2018-02-19T23:31:13.454Z,99.90
2018-02-19T23:33:40.942Z,99.90
2018-02-19T23:36:08.512Z,99.90
2018-02-19T23:38:35.959Z,99.90
2018-02-19T23:41:03.424Z,99.90
2018-02-19T23:43:30.985Z,99.90
2018-02-19T23:45:58.521Z,99.90
2018-02-19T23:48:25.996Z,99.90
2018-02-19T23:50:53.471Z,99.90
2018-02-19T23:53:21.100Z,99.90
2018-02-19T23:55:48.565Z,99.90
2018-02-19T23:58:16.081Z,99.90
